Time;durP1;ratioP1;P1;durP2;ratioP2;P2;SDS_P1;SDS_P2;PMS_P1;PMS_P2;Temp;Humidity;BMP_temperature;BMP_pressure;BME280_temperature;BME280_humidity;BME280_pressure;Samples;Min_cycle;Max_cycle;Signal;HPM_P1;HPM_P2
2023/09/07 00:01:55;;;;;;;1999.90;999.90;;;20.60;99.90;;;;;;5032601;28;20536;-73
2023/09/07 00:04:22;;;;;;;1999.90;999.90;;;20.60;99.90;;;;;;5033255;28;20197;-73
2023/09/07 00:06:49;;;;;;;1999.90;999.90;;;20.60;99.90;;;;;;5033076;28;20713;-73
2023/09/07 00:09:16;;;;;;;1999.90;999.90;;;20.60;99.90;;;;;;5032971;28;20430;-73
2023/09/07 00:11:41;;;;;;;1999.90;999.90;;;20.70;99.90;;;;;;5032671;28;20483;-73
2023/09/07 00:14:07;;;;;;;1999.90;999.90;;;20.70;99.90;;;;;;5032816;28;20453;-73
2023/09/07 00:16:38;;;;;;;1999.90;999.90;;;20.60;99.90;;;;;;5032989;28;20211;-73
2023/09/07 00:19:04;;;;;;;1999.90;999.90;;;20.60;99.90;;;;;;5033008;28;20202;-73
2023/09/07 00:21:29;;;;;;;1999.90;999.90;;;20.60;99.90;;;;;;5032397;28;20430;-73
2023/09/07 00:23:55;;;;;;;1999.90;999.90;;;20.50;99.90;;;;;;5032703;28;20930;-73
2023/09/07 00:26:21;;;;;;;1999.90;999.90;;;20.40;99.90;;;;;;5032750;28;20168;-73
2023/09/07 00:28:46;;;;;;;1999.90;999.90;;;20.40;99.90;;;;;;5032525;28;20178;-73
2023/09/07 00:31:12;;;;;;;1999.90;999.90;;;20.30;99.90;;;;;;5032183;28;20184;-73
2023/09/07 00:33:37;;;;;;;1999.90;999.90;;;20.10;99.90;;;;;;5032540;28;20225;-73
2023/09/07 00:36:03;;;;;;;1999.90;999.90;;;20.00;99.90;;;;;;5032406;28;20179;-73
2023/09/07 00:38:29;;;;;;;1999.90;999.90;;;20.00;99.90;;;;;;5032445;28;20180;-72
2023/09/07 00:40:55;;;;;;;1999.90;999.90;;;19.90;99.90;;;;;;5032091;28;20167;-73
2023/09/07 00:43:20;;;;;;;1999.90;999.90;;;19.70;99.90;;;;;;5032279;28;20170;-73
2023/09/07 00:45:46;;;;;;;1999.90;999.90;;;19.60;99.90;;;;;;5032452;28;20177;-73
2023/09/07 00:48:13;;;;;;;1999.90;999.90;;;19.60;99.90;;;;;;5032307;28;20656;-73
2023/09/07 00:50:39;;;;;;;1999.90;999.90;;;19.60;99.90;;;;;;5032415;28;20179;-73
2023/09/07 00:53:06;;;;;;;1999.90;999.90;;;19.70;99.90;;;;;;5031584;28;20425;-73
2023/09/07 00:55:34;;;;;;;1999.90;999.90;;;19.60;99.90;;;;;;5032309;28;21016;-73
2023/09/07 00:58:00;;;;;;;1999.90;999.90;;;19.60;99.90;;;;;;5032153;28;20455;-73
2023/09/07 01:00:26;;;;;;;1999.90;999.90;;;19.60;99.90;;;;;;5032185;28;20491;-73
2023/09/07 01:02:52;;;;;;;1999.90;999.90;;;19.50;99.90;;;;;;5031628;28;20496;-73
2023/09/07 01:05:19;;;;;;;1999.90;999.90;;;19.50;99.90;;;;;;5032239;28;20173;-73
2023/09/07 01:07:54;;;;;;;1999.90;999.90;;;19.40;99.90;;;;;;5032152;28;20179;-73
2023/09/07 01:10:21;;;;;;;1999.90;999.90;;;19.30;99.90;;;;;;5032056;28;20461;-73
2023/09/07 01:12:47;;;;;;;1999.90;999.90;;;19.20;99.90;;;;;;5031914;28;20439;-73
2023/09/07 01:15:12;;;;;;;1999.90;999.90;;;19.20;99.90;;;;;;5031916;28;20410;-73
2023/09/07 01:17:39;;;;;;;1999.90;999.90;;;19.20;99.90;;;;;;5031962;28;20291;-73
2023/09/07 01:20:09;;;;;;;1999.90;999.90;;;19.20;99.90;;;;;;5031957;28;20177;-72
2023/09/07 01:22:35;;;;;;;1999.90;999.90;;;19.20;99.90;;;;;;5031571;28;20431;-73
2023/09/07 01:25:01;;;;;;;1999.90;999.90;;;19.20;99.90;;;;;;5031871;28;20413;-72
2023/09/07 01:27:27;;;;;;;1999.90;999.90;;;19.20;99.90;;;;;;5031921;28;20466;-73
2023/09/07 01:29:53;;;;;;;1999.90;999.90;;;19.20;99.90;;;;;;5031818;28;20880;-73
2023/09/07 01:32:18;;;;;;;1999.90;999.90;;;19.20;99.90;;;;;;5031606;28;20197;-72
2023/09/07 01:34:44;;;;;;;1999.90;999.90;;;19.20;99.90;;;;;;5031817;28;20189;-73
2023/09/07 01:37:10;;;;;;;1999.90;999.90;;;19.20;99.90;;;;;;5031653;28;20196;-73
2023/09/07 01:39:35;;;;;;;1999.90;999.90;;;19.10;99.90;;;;;;5031739;28;20173;-72
2023/09/07 01:42:01;;;;;;;1999.90;999.90;;;19.10;99.90;;;;;;5031332;28;20226;-73
2023/09/07 01:44:26;;;;;;;1999.90;999.90;;;19.10;99.90;;;;;;5031763;28;20173;-73
2023/09/07 01:46:52;;;;;;;1999.90;999.90;;;19.00;99.90;;;;;;5031963;28;20660;-73
2023/09/07 01:49:18;;;;;;;1999.90;999.90;;;18.90;99.90;;;;;;5031671;28;20229;-73
2023/09/07 01:51:44;;;;;;;1999.90;999.90;;;18.80;99.90;;;;;;5031252;28;20454;-73
2023/09/07 01:54:09;;;;;;;1999.90;999.90;;;18.80;99.90;;;;;;5031630;28;20229;-72
2023/09/07 01:56:35;;;;;;;1999.90;999.90;;;18.70;99.90;;;;;;5031557;28;20196;-73
2023/09/07 01:59:01;;;;;;;1999.90;999.90;;;18.70;99.90;;;;;;5031504;28;20165;-73
2023/09/07 02:01:30;;;;;;;1999.90;999.90;;;18.70;99.90;;;;;;5031085;28;20269;-73
2023/09/07 02:03:57;;;;;;;1999.90;999.90;;;18.50;99.90;;;;;;5031552;28;20174;-73
2023/09/07 02:06:22;;;;;;;1999.90;999.90;;;18.40;99.90;;;;;;5033473;28;20484;-73
2023/09/07 02:08:48;;;;;;;1999.90;999.90;;;18.30;99.90;;;;;;5035262;28;20473;-73
2023/09/07 02:11:14;;;;;;;1999.90;999.90;;;18.30;99.90;;;;;;5034900;28;20562;-73
2023/09/07 02:13:43;;;;;;;1999.90;999.90;;;18.20;99.90;;;;;;5040999;28;20215;-74
2023/09/07 02:16:09;;;;;;;1999.90;999.90;;;18.20;99.90;;;;;;5041998;28;20176;-74
2023/09/07 02:18:36;;;;;;;1999.90;999.90;;;18.20;99.90;;;;;;5041050;28;20403;-74
2023/09/07 02:21:03;;;;;;;1999.90;999.90;;;18.20;99.90;;;;;;5034626;28;20181;-72
2023/09/07 02:23:29;;;;;;;1999.90;999.90;;;18.20;99.90;;;;;;5035235;28;20421;-72
2023/09/07 02:25:55;;;;;;;1999.90;999.90;;;18.10;99.90;;;;;;5034982;28;20409;-73
2023/09/07 02:28:20;;;;;;;1999.90;999.90;;;18.10;99.90;;;;;;5034858;28;20780;-72
2023/09/07 02:30:46;;;;;;;1999.90;999.90;;;18.00;99.90;;;;;;5034747;28;20176;-72
2023/09/07 02:33:11;;;;;;;1999.90;999.90;;;18.00;99.90;;;;;;5034520;28;20585;-72
2023/09/07 02:35:37;;;;;;;1999.90;999.90;;;18.00;99.90;;;;;;5034681;28;20211;-74
2023/09/07 02:38:03;;;;;;;1999.90;999.90;;;17.90;99.90;;;;;;5035298;28;20206;-74
2023/09/07 02:40:28;;;;;;;1999.90;999.90;;;17.80;99.90;;;;;;5040904;28;20772;-74
2023/09/07 02:42:54;;;;;;;1999.90;999.90;;;17.70;99.90;;;;;;5041256;28;20719;-74
2023/09/07 02:45:20;;;;;;;1999.90;999.90;;;17.70;99.90;;;;;;5041018;28;20572;-74
2023/09/07 02:47:46;;;;;;;1999.90;999.90;;;17.50;99.90;;;;;;5040905;28;20189;-74
2023/09/07 02:50:12;;;;;;;1999.90;999.90;;;17.40;99.90;;;;;;5034714;28;20627;-73
2023/09/07 02:52:39;;;;;;;1999.90;999.90;;;17.40;99.90;;;;;;5034121;28;20851;-73
2023/09/07 02:55:06;;;;;;;1999.90;999.90;;;17.30;99.90;;;;;;5034688;28;20892;-74
2023/09/07 02:57:31;;;;;;;1999.90;999.90;;;17.30;99.90;;;;;;5039149;28;20846;-74
2023/09/07 02:59:57;;;;;;;1999.90;999.90;;;17.30;99.90;;;;;;5039656;28;20413;-74
2023/09/07 03:02:23;;;;;;;1999.90;999.90;;;17.40;99.90;;;;;;5036062;28;20231;-72
2023/09/07 03:04:54;;;;;;;1999.90;999.90;;;17.30;99.90;;;;;;5034187;28;20176;-73
2023/09/07 03:07:19;;;;;;;1999.90;999.90;;;17.30;99.90;;;;;;5034242;28;20225;-73
2023/09/07 03:09:45;;;;;;;1999.90;999.90;;;17.40;99.90;;;;;;5034201;28;20413;-72
2023/09/07 03:12:10;;;;;;;1999.90;999.90;;;17.40;99.90;;;;;;5033687;28;20192;-72
2023/09/07 03:14:36;;;;;;;1999.90;999.90;;;17.30;99.90;;;;;;5034090;28;20255;-73
2023/09/07 03:17:03;;;;;;;1999.90;999.90;;;17.30;99.90;;;;;;5033641;28;20320;-72
2023/09/07 03:19:29;;;;;;;1999.90;999.90;;;17.30;99.90;;;;;;5033933;28;20193;-73
2023/09/07 03:21:54;;;;;;;1999.90;999.90;;;17.30;99.90;;;;;;5033582;28;20796;-73
2023/09/07 03:24:20;;;;;;;1999.90;999.90;;;17.30;99.90;;;;;;5035435;28;20170;-74
2023/09/07 03:26:46;;;;;;;1999.90;999.90;;;17.20;99.90;;;;;;5041205;28;20490;-74
2023/09/07 03:29:11;;;;;;;1999.90;999.90;;;17.30;99.90;;;;;;5041034;28;20169;-74
2023/09/07 03:31:37;;;;;;;1999.90;999.90;;;17.20;99.90;;;;;;5041423;28;20192;-74
2023/09/07 03:34:03;;;;;;;1999.90;999.90;;;17.20;99.90;;;;;;5041432;28;20637;-74
2023/09/07 03:36:28;;;;;;;1999.90;999.90;;;17.20;99.90;;;;;;5040875;28;20174;-74
2023/09/07 03:38:54;;;;;;;1999.90;999.90;;;17.20;99.90;;;;;;5040333;28;20280;-74
2023/09/07 03:41:19;;;;;;;1999.90;999.90;;;17.10;99.90;;;;;;5039930;28;20201;-74
2023/09/07 03:43:45;;;;;;;1999.90;999.90;;;17.10;99.90;;;;;;5041519;28;20176;-74
2023/09/07 03:46:10;;;;;;;1999.90;999.90;;;17.20;99.90;;;;;;5039909;28;20616;-74
2023/09/07 03:48:36;;;;;;;1999.90;999.90;;;17.20;99.90;;;;;;5038548;28;20172;-74
2023/09/07 03:51:05;;;;;;;1999.90;999.90;;;17.00;99.90;;;;;;5038311;28;20197;-74
2023/09/07 03:53:31;;;;;;;1999.90;999.90;;;17.20;99.90;;;;;;5030384;28;20531;-75
2023/09/07 03:55:57;;;;;;;1999.90;999.90;;;17.20;99.90;;;;;;5042763;28;20417;-74
2023/09/07 03:58:22;;;;;;;1999.90;999.90;;;17.10;99.90;;;;;;5032561;28;20626;-74
2023/09/07 04:00:48;;;;;;;1999.90;999.90;;;17.30;99.90;;;;;;5031442;28;20167;-73
2023/09/07 04:03:14;;;;;;;1999.90;999.90;;;17.10;99.90;;;;;;5038208;28;20641;-74
2023/09/07 04:05:40;;;;;;;1999.90;999.90;;;17.20;99.90;;;;;;5037925;28;20686;-73
2023/09/07 04:08:06;;;;;;;1999.90;999.90;;;17.10;99.90;;;;;;5027738;28;20446;-74
2023/09/07 04:10:31;;;;;;;1999.90;999.90;;;17.10;99.90;;;;;;5037707;28;20242;-74
2023/09/07 04:12:57;;;;;;;1999.90;999.90;;;17.20;99.90;;;;;;5038579;28;20820;-74
2023/09/07 04:15:23;;;;;;;1999.90;999.90;;;17.20;99.90;;;;;;5026741;28;20175;-73
2023/09/07 04:17:50;;;;;;;1999.90;999.90;;;17.20;99.90;;;;;;5032703;28;20273;-73
2023/09/07 04:20:17;;;;;;;1999.90;999.90;;;17.10;99.90;;;;;;5032844;28;20233;-72
2023/09/07 04:22:42;;;;;;;1999.90;999.90;;;17.20;99.90;;;;;;5032428;28;20426;-72
2023/09/07 04:25:08;;;;;;;1999.90;999.90;;;17.10;99.90;;;;;;5032638;28;20413;-72
2023/09/07 04:27:34;;;;;;;1999.90;999.90;;;17.10;99.90;;;;;;5032553;28;20183;-73
2023/09/07 04:30:00;;;;;;;1999.90;999.90;;;17.10;99.90;;;;;;5032176;28;20172;-73
2023/09/07 04:32:25;;;;;;;1999.90;999.90;;;17.00;99.90;;;;;;5032200;28;20427;-73
2023/09/07 04:34:56;;;;;;;1999.90;999.90;;;17.00;99.90;;;;;;5032788;28;20643;-73
2023/09/07 04:37:24;;;;;;;1999.90;999.90;;;16.90;99.90;;;;;;5027947;28;20192;-73
2023/09/07 04:39:53;;;;;;;1999.90;999.90;;;16.90;99.90;;;;;;5025273;28;20417;-73
2023/09/07 04:42:20;;;;;;;1999.90;999.90;;;16.90;99.90;;;;;;5032080;28;20502;-73
2023/09/07 04:44:47;;;;;;;1999.90;999.90;;;16.80;99.90;;;;;;5032421;28;20766;-73
2023/09/07 04:47:12;;;;;;;1999.90;999.90;;;16.80;99.90;;;;;;5032325;28;20411;-73
2023/09/07 04:49:38;;;;;;;1999.90;999.90;;;16.70;99.90;;;;;;5032261;28;20471;-73
2023/09/07 04:52:04;;;;;;;1999.90;999.90;;;16.70;99.90;;;;;;5029769;28;20198;-72
2023/09/07 04:54:30;;;;;;;1999.90;999.90;;;16.70;99.90;;;;;;5025918;28;20251;-74
2023/09/07 04:56:55;;;;;;;1999.90;999.90;;;16.60;99.90;;;;;;5038575;28;21001;-74
2023/09/07 04:59:21;;;;;;;1999.90;999.90;;;16.50;99.90;;;;;;5038420;28;20187;-74
2023/09/07 05:01:46;;;;;;;1999.90;999.90;;;16.50;99.90;;;;;;5037844;28;20232;-74
2023/09/07 05:04:12;;;;;;;1999.90;999.90;;;16.50;99.90;;;;;;5038867;28;20169;-74
2023/09/07 05:06:40;;;;;;;1999.90;999.90;;;16.50;99.90;;;;;;5038092;28;20171;-74
2023/09/07 05:09:05;;;;;;;1999.90;999.90;;;16.50;99.90;;;;;;5038630;28;20163;-74
2023/09/07 05:11:34;;;;;;;1999.90;999.90;;;16.50;99.90;;;;;;5037878;28;20444;-74
2023/09/07 05:14:00;;;;;;;1999.90;999.90;;;16.50;99.90;;;;;;5037886;28;20269;-74
2023/09/07 05:16:26;;;;;;;1999.90;999.90;;;16.50;99.90;;;;;;5037901;28;20783;-74
2023/09/07 05:18:51;;;;;;;1999.90;999.90;;;16.50;99.90;;;;;;5034821;28;20483;-73
2023/09/07 05:21:17;;;;;;;1999.90;999.90;;;16.50;99.90;;;;;;5031649;28;20184;-73
2023/09/07 05:23:43;;;;;;;1999.90;999.90;;;16.50;99.90;;;;;;5031907;28;20174;-73
2023/09/07 05:26:09;;;;;;;1999.90;999.90;;;16.50;99.90;;;;;;5031849;28;20172;-73
2023/09/07 05:28:34;;;;;;;1999.90;999.90;;;16.50;99.90;;;;;;5031915;28;20172;-73
2023/09/07 05:31:00;;;;;;;1999.90;999.90;;;16.60;99.90;;;;;;5031488;28;20255;-73
2023/09/07 05:33:25;;;;;;;1999.90;999.90;;;16.60;99.90;;;;;;5031814;28;20176;-73
2023/09/07 05:35:51;;;;;;;1999.90;999.90;;;16.60;99.90;;;;;;5031825;28;20173;-73
2023/09/07 05:38:16;;;;;;;1999.90;999.90;;;16.60;99.90;;;;;;5031630;28;20278;-73
2023/09/07 05:40:44;;;;;;;1999.90;999.90;;;16.70;99.90;;;;;;5034398;28;20216;-72
2023/09/07 05:43:10;;;;;;;1999.90;999.90;;;16.70;99.90;;;;;;5035367;28;20606;-73
2023/09/07 05:45:38;;;;;;;1999.90;999.90;;;16.70;99.90;;;;;;5035759;28;20767;-73
2023/09/07 05:48:05;;;;;;;1999.90;999.90;;;16.70;99.90;;;;;;5035712;28;20403;-73
2023/09/07 05:50:36;;;;;;;1999.90;999.90;;;16.80;99.90;;;;;;5035620;28;20412;-73
2023/09/07 05:53:02;;;;;;;1999.90;999.90;;;16.80;99.90;;;;;;5035241;28;20429;-72
2023/09/07 05:55:27;;;;;;;1999.90;999.90;;;16.70;99.90;;;;;;5035446;28;20418;-73
2023/09/07 05:57:57;;;;;;;1999.90;999.90;;;16.70;99.90;;;;;;5035372;28;20457;-73
2023/09/07 06:00:23;;;;;;;1999.90;999.90;;;16.80;99.90;;;;;;5035448;28;20175;-73
2023/09/07 06:02:50;;;;;;;1999.90;999.90;;;16.80;99.90;;;;;;5035016;28;20452;-74
2023/09/07 06:05:16;;;;;;;1999.90;999.90;;;16.80;99.90;;;;;;5035306;28;20434;-73
2023/09/07 06:07:42;;;;;;;1999.90;999.90;;;16.90;99.90;;;;;;5036099;28;20437;-73
2023/09/07 06:10:07;;;;;;;1999.90;999.90;;;16.90;99.90;;;;;;5039620;28;20407;-74
2023/09/07 06:12:33;;;;;;;1999.90;999.90;;;16.90;99.90;;;;;;5039747;28;20195;-73
2023/09/07 06:15:03;;;;;;;1999.90;999.90;;;16.90;99.90;;;;;;5035192;28;20661;-74
2023/09/07 06:17:29;;;;;;;1999.90;999.90;;;17.00;99.90;;;;;;5035021;28;20966;-73
2023/09/07 06:19:55;;;;;;;1999.90;999.90;;;17.20;99.90;;;;;;5035138;28;20434;-73
2023/09/07 06:22:21;;;;;;;1999.90;999.90;;;17.30;99.90;;;;;;5034692;28;20423;-73
2023/09/07 06:24:46;;;;;;;1999.90;999.90;;;17.30;99.90;;;;;;5034966;28;20421;-73
2023/09/07 06:27:12;;;;;;;1999.90;999.90;;;17.40;99.90;;;;;;5034938;28;20249;-73
2023/09/07 06:29:37;;;;;;;1999.90;999.90;;;17.50;99.90;;;;;;5034918;28;20199;-73
2023/09/07 06:32:03;;;;;;;1999.90;999.90;;;17.50;99.90;;;;;;5034559;28;20193;-72
2023/09/07 06:34:29;;;;;;;1999.90;999.90;;;17.60;99.90;;;;;;5034802;28;20175;-73
2023/09/07 06:36:54;;;;;;;1999.90;999.90;;;17.60;99.90;;;;;;5034611;28;20457;-73
2023/09/07 06:39:20;;;;;;;1999.90;999.90;;;17.70;99.90;;;;;;5034701;28;20196;-73
2023/09/07 06:41:46;;;;;;;1999.90;999.90;;;17.80;99.90;;;;;;5034305;28;20178;-72
2023/09/07 06:44:12;;;;;;;1999.90;999.90;;;17.90;99.90;;;;;;5039036;28;20194;-74
2023/09/07 06:46:37;;;;;;;1999.90;999.90;;;18.00;99.90;;;;;;5038602;28;20416;-74
2023/09/07 06:49:03;;;;;;;1999.90;999.90;;;18.20;99.90;;;;;;5037584;28;20169;-74
2023/09/07 06:51:30;;;;;;;1999.90;999.90;;;18.20;99.90;;;;;;5039160;28;20197;-74
2023/09/07 06:53:56;;;;;;;1999.90;999.90;;;18.30;99.90;;;;;;5039709;28;20171;-73
2023/09/07 06:56:22;;;;;;;1999.90;999.90;;;18.40;99.90;;;;;;5036080;28;20405;-73
2023/09/07 06:58:48;;;;;;;1999.90;999.90;;;18.50;99.90;;;;;;5034573;28;20198;-73
2023/09/07 07:01:13;;;;;;;1999.90;999.90;;;18.60;99.90;;;;;;5033880;28;20870;-73
2023/09/07 07:03:39;;;;;;;1999.90;999.90;;;18.70;99.90;;;;;;5032405;28;20196;-73
2023/09/07 07:06:05;;;;;;;1999.90;999.90;;;18.80;99.90;;;;;;5022455;28;20170;-74
2023/09/07 07:08:30;;;;;;;1999.90;999.90;;;19.00;99.90;;;;;;5032327;28;20193;-73
2023/09/07 07:10:56;;;;;;;1999.90;999.90;;;19.10;99.90;;;;;;5033961;28;20213;-72
2023/09/07 07:13:21;;;;;;;1999.90;999.90;;;19.20;99.90;;;;;;5034325;28;20220;-75
2023/09/07 07:15:47;;;;;;;1999.90;999.90;;;19.30;99.90;;;;;;5034287;28;20248;-73
2023/09/07 07:18:12;;;;;;;1999.90;999.90;;;19.50;99.90;;;;;;5032231;28;20203;-73
2023/09/07 07:20:39;;;;;;;1999.90;999.90;;;19.50;99.90;;;;;;5022859;28;20181;-73
2023/09/07 07:23:08;;;;;;;1999.90;999.90;;;19.70;99.90;;;;;;5028314;28;20190;-73
2023/09/07 07:25:34;;;;;;;1999.90;999.90;;;19.80;99.90;;;;;;5034064;28;20416;-73
2023/09/07 07:28:05;;;;;;;1999.90;999.90;;;19.80;99.90;;;;;;5034070;28;20490;-73
2023/09/07 07:30:32;;;;;;;1999.90;999.90;;;20.00;99.90;;;;;;5033822;28;20437;-72
2023/09/07 07:32:57;;;;;;;1999.90;999.90;;;20.10;99.90;;;;;;5033686;28;20925;-73
2023/09/07 07:35:23;;;;;;;1999.90;999.90;;;20.20;99.90;;;;;;5033611;28;20541;-73
2023/09/07 07:37:52;;;;;;;1999.90;999.90;;;20.30;99.90;;;;;;5033496;28;20277;-73
2023/09/07 07:40:18;;;;;;;1999.90;999.90;;;20.40;99.90;;;;;;5033570;28;20535;-73
2023/09/07 07:42:46;;;;;;;1999.90;999.90;;;20.40;99.90;;;;;;5034245;28;20424;-74
2023/09/07 07:45:12;;;;;;;1999.90;999.90;;;20.50;99.90;;;;;;5034633;28;20408;-74
2023/09/07 07:47:38;;;;;;;1999.90;999.90;;;20.60;99.90;;;;;;5020698;28;20426;-73
2023/09/07 07:50:04;;;;;;;1999.90;999.90;;;20.80;99.90;;;;;;5013723;28;20442;-73
2023/09/07 07:52:30;;;;;;;1999.90;999.90;;;20.90;99.90;;;;;;5020027;28;20231;-73
2023/09/07 07:54:55;;;;;;;1999.90;999.90;;;21.00;99.90;;;;;;5021517;28;20385;-73
2023/09/07 07:57:21;;;;;;;1999.90;999.90;;;21.10;99.90;;;;;;5011404;28;20208;-75
2023/09/07 07:59:47;;;;;;;1999.90;999.90;;;21.20;99.90;;;;;;5008144;28;20178;-75
2023/09/07 08:02:12;;;;;;;1999.90;999.90;;;21.30;99.90;;;;;;5024235;28;20237;-75
2023/09/07 08:04:38;;;;;;;1999.90;999.90;;;21.40;99.90;;;;;;5016290;28;20617;-75
2023/09/07 08:07:03;;;;;;;1999.90;999.90;;;21.40;99.90;;;;;;5022425;28;20180;-75
2023/09/07 08:09:32;;;;;;;1999.90;999.90;;;21.50;99.90;;;;;;5019965;28;20222;-75
2023/09/07 08:11:58;;;;;;;1999.90;999.90;;;21.60;99.90;;;;;;5020642;28;20248;-75
2023/09/07 08:14:25;;;;;;;1999.90;999.90;;;21.70;99.90;;;;;;5019882;28;20801;-75
2023/09/07 08:16:51;;;;;;;1999.90;999.90;;;21.80;99.90;;;;;;5020994;28;20188;-75
2023/09/07 08:19:17;;;;;;;1999.90;999.90;;;21.90;99.90;;;;;;5010481;28;20475;-77
2023/09/07 08:21:44;;;;;;;1999.90;999.90;;;21.90;99.90;;;;;;5020991;28;21017;-75
2023/09/07 08:24:09;;;;;;;1999.90;999.90;;;22.00;99.90;;;;;;5030658;28;20211;-77
2023/09/07 08:26:36;;;;;;;1999.90;999.90;;;22.20;99.90;;;;;;5028226;28;20450;-75
2023/09/07 08:29:05;;;;;;;1999.90;999.90;;;22.30;99.90;;;;;;5029646;28;20218;-75
2023/09/07 08:31:35;;;;;;;1999.90;999.90;;;22.40;99.90;;;;;;5030961;28;20436;-77
2023/09/07 08:34:03;;;;;;;1999.90;999.90;;;22.50;99.90;;;;;;5012998;28;20811;-76
2023/09/07 08:36:32;;;;;;;1999.90;999.90;;;22.60;99.90;;;;;;5009332;28;20406;-76
2023/09/07 08:38:59;;;;;;;1999.90;999.90;;;22.70;99.90;;;;;;5012351;28;20455;-76
2023/09/07 08:41:26;;;;;;;1999.90;999.90;;;22.80;99.90;;;;;;5005495;28;20440;-74
2023/09/07 08:43:53;;;;;;;1999.90;999.90;;;22.90;99.90;;;;;;5009442;28;20490;-74
2023/09/07 08:46:23;;;;;;;1999.90;999.90;;;22.90;99.90;;;;;;5005402;28;20432;-75
2023/09/07 08:48:49;;;;;;;1999.90;999.90;;;23.00;99.90;;;;;;5022307;28;20534;-75
2023/09/07 08:51:17;;;;;;;1999.90;999.90;;;23.10;99.90;;;;;;5030537;28;20442;-75
2023/09/07 08:53:46;;;;;;;1999.90;999.90;;;23.10;99.90;;;;;;5012781;28;20918;-73
2023/09/07 08:56:16;;;;;;;1999.90;999.90;;;23.20;99.90;;;;;;5016910;28;20454;-74
2023/09/07 08:58:41;;;;;;;1999.90;999.90;;;23.30;99.90;;;;;;5021064;28;20565;-75
2023/09/07 09:01:08;;;;;;;1999.90;999.90;;;23.50;99.90;;;;;;5009383;28;20901;-72
2023/09/07 09:03:35;;;;;;;1999.90;999.90;;;23.50;99.90;;;;;;5013882;28;20193;-77
2023/09/07 09:06:02;;;;;;;1999.90;999.90;;;23.60;99.90;;;;;;5019867;28;20547;-73
2023/09/07 09:08:28;;;;;;;1999.90;999.90;;;23.60;99.90;;;;;;5027544;28;20442;-74
2023/09/07 09:11:03;;;;;;;1999.90;999.90;;;23.70;99.90;;;;;;5025875;28;20817;-75
2023/09/07 09:13:32;;;;;;;1999.90;999.90;;;23.80;99.90;;;;;;5010543;28;20192;-73
2023/09/07 09:16:01;;;;;;;1999.90;999.90;;;23.90;99.90;;;;;;5016314;28;20797;-73
2023/09/07 09:18:27;;;;;;;1999.90;999.90;;;24.00;99.90;;;;;;5016416;28;20492;-75
2023/09/07 09:20:55;;;;;;;1999.90;999.90;;;24.10;99.90;;;;;;5027244;28;20407;-76
2023/09/07 09:23:20;;;;;;;1999.90;999.90;;;24.20;99.90;;;;;;5022427;28;20386;-75
2023/09/07 09:25:48;;;;;;;1999.90;999.90;;;24.30;99.90;;;;;;5019398;28;20435;-73
2023/09/07 09:28:14;;;;;;;1999.90;999.90;;;24.40;99.90;;;;;;5027165;28;20174;-75
2023/09/07 09:30:43;;;;;;;1999.90;999.90;;;24.50;99.90;;;;;;5027994;28;20756;-73
2023/09/07 09:33:09;;;;;;;1999.90;999.90;;;24.60;99.90;;;;;;5026885;28;20192;-74
2023/09/07 09:35:35;;;;;;;1999.90;999.90;;;24.70;99.90;;;;;;5027187;28;20536;-74
2023/09/07 09:38:05;;;;;;;1999.90;999.90;;;24.80;99.90;;;;;;5024508;28;20941;-75
2023/09/07 09:40:33;;;;;;;1999.90;999.90;;;25.00;99.90;;;;;;5017366;28;20908;-73
2023/09/07 09:43:01;;;;;;;1999.90;999.90;;;25.00;99.90;;;;;;5026667;28;20409;-75
2023/09/07 09:45:27;;;;;;;1999.90;999.90;;;25.10;99.90;;;;;;5027061;28;20753;-74
2023/09/07 09:47:55;;;;;;;1999.90;999.90;;;25.20;99.90;;;;;;5027900;28;20389;-75
2023/09/07 09:50:22;;;;;;;1999.90;999.90;;;25.30;99.90;;;;;;5027132;28;20546;-73
2023/09/07 09:52:48;;;;;;;1999.90;999.90;;;25.40;99.90;;;;;;5026609;28;20797;-74
2023/09/07 09:55:15;;;;;;;1999.90;999.90;;;25.50;99.90;;;;;;5027645;28;20397;-74
2023/09/07 09:57:41;;;;;;;1999.90;999.90;;;25.60;99.90;;;;;;5027160;28;21033;-74
2023/09/07 10:02:49;;;;;;;1999.90;999.90;;;25.80;99.90;;;;;;5026517;28;20211;-74
2023/09/07 10:05:16;;;;;;;1999.90;999.90;;;25.90;99.90;;;;;;5027139;28;20389;-74
2023/09/07 10:07:47;;;;;;;1999.90;999.90;;;26.10;99.90;;;;;;5027653;28;20415;-74
2023/09/07 10:10:14;;;;;;;1999.90;999.90;;;26.20;99.90;;;;;;5019620;28;20432;-74
2023/09/07 10:12:44;;;;;;;1999.90;999.90;;;26.30;99.90;;;;;;5018225;28;20405;-74
2023/09/07 10:15:23;;;;;;;1999.90;999.90;;;26.40;99.90;;;;;;5026866;28;20471;-75
2023/09/07 10:17:52;;;;;;;1999.90;999.90;;;26.50;99.90;;;;;;5026588;28;20429;-74
2023/09/07 10:20:22;;;;;;;1999.90;999.90;;;26.60;99.90;;;;;;5027105;28;20385;-75
2023/09/07 10:22:48;;;;;;;1999.90;999.90;;;26.70;99.90;;;;;;5027251;28;20794;-73
2023/09/07 10:25:22;;;;;;;1999.90;999.90;;;26.80;99.90;;;;;;5026781;28;20415;-73
2023/09/07 10:27:48;;;;;;;1999.90;999.90;;;26.90;99.90;;;;;;5029239;28;20920;-73
2023/09/07 10:30:15;;;;;;;1999.90;999.90;;;27.00;99.90;;;;;;5024046;28;20434;-75
2023/09/07 10:32:41;;;;;;;1999.90;999.90;;;27.20;99.90;;;;;;5019077;28;20838;-73
2023/09/07 10:35:18;;;;;;;1999.90;999.90;;;27.30;99.50;;;;;;5018431;28;20504;-73
2023/09/07 10:37:46;;;;;;;1999.90;999.90;;;27.50;99.70;;;;;;4990766;28;20216;-74
2023/09/07 10:40:13;;;;;;;1999.90;999.90;;;27.60;99.90;;;;;;4990632;28;20518;-74
2023/09/07 10:42:39;;;;;;;1999.90;999.90;;;27.70;99.90;;;;;;5013999;28;20846;-74
2023/09/07 10:45:16;;;;;;;1999.90;999.90;;;27.80;98.60;;;;;;5018261;28;20416;-73
2023/09/07 10:47:48;;;;;;;1999.90;999.90;;;28.00;97.40;;;;;;5029625;28;20176;-74
2023/09/07 10:50:14;;;;;;;1999.90;999.90;;;28.10;96.90;;;;;;5029982;28;20939;-74
2023/09/07 10:52:42;;;;;;;1999.90;999.90;;;28.20;97.00;;;;;;5030050;28;20467;-75
2023/09/07 10:55:10;;;;;;;1999.90;999.90;;;28.40;95.80;;;;;;5029737;28;20777;-73
2023/09/07 10:57:46;;;;;;;1999.90;999.90;;;28.50;95.20;;;;;;5030151;28;21248;-73
2023/09/07 11:00:13;;;;;;;1999.90;999.90;;;28.60;94.40;;;;;;5029783;28;20414;-74
2023/09/07 11:02:39;;;;;;;1999.90;999.90;;;28.70;91.30;;;;;;5029396;28;20482;-74
2023/09/07 11:05:06;;;;;;;1999.90;999.90;;;28.80;90.60;;;;;;5030713;28;20415;-74
2023/09/07 11:07:32;;;;;;;1999.90;999.90;;;28.90;91.20;;;;;;5030110;28;20762;-74
2023/09/07 11:09:58;;;;;;;1999.90;999.90;;;29.00;90.60;;;;;;5029803;28;20415;-74
2023/09/07 11:12:24;;;;;;;1999.90;999.90;;;29.20;88.20;;;;;;5030135;28;20485;-75
2023/09/07 11:14:53;;;;;;;1999.90;999.90;;;29.30;88.50;;;;;;5029890;28;20295;-73
2023/09/07 11:17:25;;;;;;;1999.90;999.90;;;29.40;84.70;;;;;;5029583;28;20207;-73
2023/09/07 11:19:54;;;;;;;1999.90;999.90;;;29.60;85.70;;;;;;5029573;28;20781;-74
2023/09/07 11:22:19;;;;;;;1999.90;999.90;;;29.70;78.30;;;;;;5029916;28;20439;-74
2023/09/07 11:24:46;;;;;;;1999.90;999.90;;;29.70;71.40;;;;;;5030135;28;20423;-73
2023/09/07 11:27:11;;;;;;;1999.90;999.90;;;29.80;72.60;;;;;;5029528;28;20253;-73
2023/09/07 11:29:39;;;;;;;1999.90;999.90;;;29.90;69.40;;;;;;5030190;28;20431;-76
2023/09/07 11:32:12;;;;;;;1999.90;999.90;;;30.00;64.80;;;;;;5029581;28;20768;-73
2023/09/07 11:34:49;;;;;;;1999.90;999.90;;;30.10;62.10;;;;;;5029717;28;20476;-73
2023/09/07 11:37:15;;;;;;;1999.90;999.90;;;30.10;59.80;;;;;;5021541;28;20999;-74
2023/09/07 11:39:40;;;;;;;1999.90;999.90;;;30.30;60.40;;;;;;5009195;28;20415;-74
2023/09/07 11:42:06;;;;;;;1999.90;999.90;;;30.40;60.20;;;;;;5009980;28;20208;-73
2023/09/07 11:44:32;;;;;;;1999.90;999.90;;;30.60;59.60;;;;;;5009579;28;20173;-74
2023/09/07 11:46:57;;;;;;;1999.90;999.90;;;31.00;54.70;;;;;;5009299;28;20185;-74
2023/09/07 11:49:24;;;;;;;1999.90;999.90;;;31.70;54.00;;;;;;5010127;28;20181;-75
2023/09/07 11:51:49;;;;;;;1999.90;999.90;;;32.50;47.40;;;;;;5009145;28;20242;-74
2023/09/07 11:54:15;;;;;;;1999.90;999.90;;;33.50;42.50;;;;;;5009408;28;20416;-74
2023/09/07 11:56:42;;;;;;;1999.90;999.90;;;34.30;30.10;;;;;;5009904;28;20192;-74
2023/09/07 11:59:09;;;;;;;1999.90;999.90;;;34.80;24.50;;;;;;5009208;28;20236;-74